ETH309 HKJK-HAAB
Flight info
| Callsign | ETH309 |
|---|---|
| Flight time | 1h 28m |
| Altitude | 38000 |
| Route | NAVE2D LOTAS UM308 RUDOL/N0471F390 UM308 SHALA SHALA7A |
| Aircraft | B77L/H-SDE1E2E3FGHIJ2J3J4J5M1RWXY/LB1D1 |
Departure
| Time | 2026-04-30 13:13 |
|---|---|
| Airport | Jomo Kenyatta International Airport (HKJK) |
Arrival
| Time | 2026-04-30 14:42 |
|---|---|
| Airport | Addis Ababa Bole International Airport (HAAB) |
| Time | Latitude | Longitude | Altitude | Speed | Heading |
|---|---|---|---|---|---|
| 2026-04-30 12:28 | -1.33109 | 36.92311 | 5341 ft | 0 kts | 77° |
| 2026-04-30 12:56 | -1.33110 | 36.92304 | 5342 ft | 2 kts | 77° |
| 2026-04-30 12:56 | -1.33115 | 36.92287 | 5342 ft | 3 kts | 63° |
| 2026-04-30 12:56 | -1.33128 | 36.92273 | 5342 ft | 3 kts | 31° |
| 2026-04-30 12:57 | -1.33147 | 36.92267 | 5342 ft | 3 kts | 1° |
| 2026-04-30 12:57 | -1.33157 | 36.92268 | 5342 ft | 0 kts | 347° |
| 2026-04-30 12:59 | -1.33155 | 36.92267 | 5342 ft | 2 kts | 347° |
| 2026-04-30 12:59 | -1.33100 | 36.92254 | 5342 ft | 10 kts | 340° |
| 2026-04-30 12:59 | -1.33070 | 36.92244 | 5342 ft | 4 kts | 340° |
| 2026-04-30 13:00 | -1.33030 | 36.92229 | 5342 ft | 5 kts | 340° |
| 2026-04-30 13:00 | -1.33012 | 36.92225 | 5342 ft | 0 kts | 352° |
| 2026-04-30 13:00 | -1.32996 | 36.92224 | 5342 ft | 7 kts | 2° |
| 2026-04-30 13:00 | -1.32948 | 36.92239 | 5342 ft | 6 kts | 26° |
| 2026-04-30 13:01 | -1.32920 | 36.92251 | 5342 ft | 4 kts | 20° |
| 2026-04-30 13:01 | -1.32859 | 36.92256 | 5342 ft | 10 kts | 329° |
| 2026-04-30 13:01 | -1.32812 | 36.92218 | 5342 ft | 11 kts | 320° |
| 2026-04-30 13:01 | -1.32743 | 36.92198 | 5342 ft | 9 kts | 44° |
| 2026-04-30 13:02 | -1.32721 | 36.92238 | 5342 ft | 6 kts | 60° |
| 2026-04-30 13:02 | -1.32701 | 36.92272 | 5342 ft | 4 kts | 57° |
| 2026-04-30 13:02 | -1.32682 | 36.92298 | 5342 ft | 7 kts | 54° |
| 2026-04-30 13:02 | -1.32659 | 36.92329 | 5342 ft | 4 kts | 54° |
| 2026-04-30 13:03 | -1.32652 | 36.92339 | 5342 ft | 1 kts | 54° |
| 2026-04-30 13:03 | -1.32630 | 36.92370 | 5342 ft | 11 kts | 54° |
| 2026-04-30 13:03 | -1.32585 | 36.92432 | 5342 ft | 9 kts | 54° |
| 2026-04-30 13:03 | -1.32552 | 36.92476 | 5342 ft | 9 kts | 54° |
| 2026-04-30 13:04 | -1.32498 | 36.92551 | 5342 ft | 14 kts | 54° |
| 2026-04-30 13:04 | -1.32448 | 36.92619 | 5342 ft | 10 kts | 54° |
| 2026-04-30 13:04 | -1.32413 | 36.92667 | 5342 ft | 11 kts | 53° |
| 2026-04-30 13:04 | -1.32361 | 36.92737 | 5342 ft | 12 kts | 53° |
| 2026-04-30 13:05 | -1.32306 | 36.92814 | 5342 ft | 17 kts | 55° |
| 2026-04-30 13:05 | -1.32228 | 36.92925 | 5342 ft | 19 kts | 55° |
| 2026-04-30 13:05 | -1.32162 | 36.93018 | 5342 ft | 14 kts | 53° |
| 2026-04-30 13:06 | -1.32038 | 36.93183 | 5342 ft | 20 kts | 53° |
| 2026-04-30 13:06 | -1.31952 | 36.93304 | 5342 ft | 20 kts | 55° |
| 2026-04-30 13:06 | -1.31882 | 36.93404 | 5342 ft | 15 kts | 56° |
| 2026-04-30 13:06 | -1.31831 | 36.93476 | 5342 ft | 11 kts | 51° |
| 2026-04-30 13:07 | -1.31786 | 36.93531 | 5342 ft | 9 kts | 52° |
| 2026-04-30 13:07 | -1.31727 | 36.93612 | 5342 ft | 16 kts | 54° |
| 2026-04-30 13:07 | -1.31670 | 36.93693 | 5342 ft | 12 kts | 54° |
| 2026-04-30 13:07 | -1.31628 | 36.93751 | 5342 ft | 9 kts | 53° |
| 2026-04-30 13:08 | -1.31583 | 36.93813 | 5342 ft | 11 kts | 53° |
| 2026-04-30 13:08 | -1.31546 | 36.93862 | 5342 ft | 7 kts | 53° |
| 2026-04-30 13:08 | -1.31526 | 36.93889 | 5342 ft | 3 kts | 53° |
| 2026-04-30 13:08 | -1.31485 | 36.93945 | 5342 ft | 15 kts | 54° |
| 2026-04-30 13:09 | -1.31438 | 36.94001 | 5342 ft | 4 kts | 22° |
| 2026-04-30 13:09 | -1.31416 | 36.94000 | 5342 ft | 6 kts | 348° |
| 2026-04-30 13:09 | -1.31341 | 36.93954 | 5342 ft | 14 kts | 323° |
| 2026-04-30 13:09 | -1.31272 | 36.93903 | 5342 ft | 10 kts | 323° |
| 2026-04-30 13:10 | -1.31224 | 36.93868 | 5342 ft | 6 kts | 323° |
| 2026-04-30 13:10 | -1.31199 | 36.93850 | 5342 ft | 5 kts | 327° |
| 2026-04-30 13:10 | -1.31173 | 36.93830 | 5342 ft | 3 kts | 301° |
| 2026-04-30 13:10 | -1.31171 | 36.93822 | 5342 ft | 2 kts | 269° |
| 2026-04-30 13:11 | -1.31180 | 36.93804 | 5342 ft | 0 kts | 235° |
| 2026-04-30 13:13 | -1.31846 | 36.92897 | 5342 ft | 156 kts | 233° |
| 2026-04-30 13:13 | -1.32586 | 36.91892 | 5676 ft | 188 kts | 231° |
| 2026-04-30 13:13 | -1.34177 | 36.89881 | 7579 ft | 190 kts | 227° |
| 2026-04-30 13:14 | -1.35055 | 36.88848 | 8298 ft | 194 kts | 227° |
| 2026-04-30 13:14 | -1.35933 | 36.87831 | 9047 ft | 196 kts | 227° |
| 2026-04-30 13:14 | -1.37800 | 36.85622 | 10131 ft | 219 kts | 229° |
| 2026-04-30 13:15 | -1.38803 | 36.84397 | 10637 ft | 238 kts | 230° |
| 2026-04-30 13:15 | -1.41051 | 36.81526 | 11532 ft | 284 kts | 232° |
| 2026-04-30 13:15 | -1.42248 | 36.79855 | 12168 ft | 305 kts | 235° |
| 2026-04-30 13:16 | -1.43459 | 36.78060 | 12828 ft | 323 kts | 236° |
| 2026-04-30 13:16 | -1.44734 | 36.76108 | 13494 ft | 342 kts | 237° |
| 2026-04-30 13:16 | -1.45901 | 36.73989 | 14024 ft | 360 kts | 248° |
| 2026-04-30 13:17 | -1.45968 | 36.68903 | 15468 ft | 384 kts | 288° |
| 2026-04-30 13:17 | -1.44700 | 36.66539 | 16331 ft | 390 kts | 307° |
| 2026-04-30 13:17 | -1.40199 | 36.63538 | 18061 ft | 401 kts | 344° |
| 2026-04-30 13:18 | -1.37439 | 36.63121 | 18906 ft | 406 kts | 356° |
| 2026-04-30 13:18 | -1.31715 | 36.63056 | 20482 ft | 417 kts | 0° |
| 2026-04-30 13:18 | -1.28810 | 36.63104 | 21230 ft | 423 kts | 1° |
| 2026-04-30 13:19 | -1.25842 | 36.63154 | 21964 ft | 428 kts | 1° |
| 2026-04-30 13:19 | -1.22865 | 36.63194 | 22760 ft | 430 kts | 360° |
| 2026-04-30 13:19 | -1.19851 | 36.63059 | 23321 ft | 437 kts | 357° |
| 2026-04-30 13:19 | -1.16760 | 36.62926 | 23936 ft | 443 kts | 357° |
| 2026-04-30 13:20 | -1.13681 | 36.62796 | 24584 ft | 447 kts | 357° |
| 2026-04-30 13:20 | -1.10562 | 36.62662 | 25212 ft | 451 kts | 357° |
| 2026-04-30 13:20 | -1.07404 | 36.62526 | 25844 ft | 455 kts | 357° |
| 2026-04-30 13:20 | -1.04236 | 36.62387 | 26434 ft | 460 kts | 357° |
| 2026-04-30 13:21 | -1.01028 | 36.62247 | 27032 ft | 464 kts | 357° |
| 2026-04-30 13:21 | -0.97783 | 36.62105 | 27638 ft | 468 kts | 357° |
| 2026-04-30 13:21 | -0.94493 | 36.61960 | 28205 ft | 474 kts | 357° |
| 2026-04-30 13:22 | -0.87861 | 36.61668 | 29436 ft | 481 kts | 357° |
| 2026-04-30 13:22 | -0.84492 | 36.61522 | 29991 ft | 487 kts | 358° |
| 2026-04-30 13:22 | -0.77669 | 36.61219 | 31119 ft | 496 kts | 358° |
| 2026-04-30 13:23 | -0.74216 | 36.61061 | 31813 ft | 499 kts | 358° |
| 2026-04-30 13:23 | -0.67375 | 36.60759 | 33198 ft | 491 kts | 358° |
| 2026-04-30 13:24 | -0.60547 | 36.60464 | 34291 ft | 495 kts | 358° |
| 2026-04-30 13:24 | -0.53638 | 36.60160 | 35422 ft | 495 kts | 358° |
| 2026-04-30 13:25 | -0.46846 | 36.59860 | 36724 ft | 488 kts | 358° |
| 2026-04-30 13:25 | -0.40084 | 36.59562 | 37806 ft | 486 kts | 358° |
| 2026-04-30 13:26 | -0.29981 | 36.59117 | 38210 ft | 482 kts | 358° |
| 2026-04-30 13:26 | -0.23265 | 36.58821 | 38211 ft | 483 kts | 358° |
| 2026-04-30 13:28 | -0.06238 | 36.58070 | 38191 ft | 502 kts | 358° |
| 2026-04-30 13:28 | 0.04198 | 36.57610 | 38184 ft | 499 kts | 358° |
| 2026-04-30 13:29 | 0.18061 | 36.56999 | 38183 ft | 498 kts | 358° |
| 2026-04-30 13:31 | 0.35341 | 36.56237 | 38182 ft | 498 kts | 358° |
| 2026-04-30 13:32 | 0.52654 | 36.55474 | 38182 ft | 498 kts | 358° |
| 2026-04-30 13:33 | 0.66483 | 36.54865 | 38229 ft | 497 kts | 358° |
| 2026-04-30 13:34 | 0.76819 | 36.54406 | 38224 ft | 497 kts | 358° |
| 2026-04-30 13:35 | 0.90630 | 36.53800 | 38226 ft | 497 kts | 358° |
| 2026-04-30 13:36 | 1.04316 | 36.54543 | 38152 ft | 495 kts | 14° |
| 2026-04-30 13:36 | 1.14216 | 36.57543 | 38114 ft | 495 kts | 18° |
| 2026-04-30 13:37 | 1.24135 | 36.60561 | 38099 ft | 495 kts | 17° |
| 2026-04-30 13:38 | 1.34067 | 36.63497 | 38081 ft | 494 kts | 17° |
| 2026-04-30 13:39 | 1.47326 | 36.67404 | 38062 ft | 494 kts | 17° |
| 2026-04-30 13:40 | 1.57213 | 36.70314 | 38038 ft | 494 kts | 16° |
| 2026-04-30 13:40 | 1.62695 | 36.71928 | 38026 ft | 494 kts | 16° |
| 2026-04-30 13:41 | 1.70372 | 36.74187 | 38013 ft | 494 kts | 16° |
| 2026-04-30 13:41 | 1.75852 | 36.75800 | 38004 ft | 495 kts | 16° |
| 2026-04-30 13:42 | 1.82510 | 36.77759 | 38022 ft | 495 kts | 16° |
| 2026-04-30 13:42 | 1.92407 | 36.80672 | 38007 ft | 495 kts | 16° |
| 2026-04-30 13:43 | 1.99017 | 36.82618 | 37959 ft | 495 kts | 16° |
| 2026-04-30 13:43 | 2.05607 | 36.84558 | 37934 ft | 494 kts | 16° |
| 2026-04-30 13:44 | 2.12217 | 36.86505 | 37926 ft | 494 kts | 16° |
| 2026-04-30 13:44 | 2.18818 | 36.88448 | 37919 ft | 495 kts | 16° |
| 2026-04-30 13:45 | 2.28744 | 36.91371 | 37909 ft | 495 kts | 16° |
| 2026-04-30 13:46 | 2.35301 | 36.93303 | 37903 ft | 494 kts | 16° |
| 2026-04-30 13:46 | 2.41891 | 36.95244 | 37898 ft | 494 kts | 17° |
| 2026-04-30 13:47 | 2.48500 | 36.97190 | 37893 ft | 495 kts | 17° |
| 2026-04-30 13:47 | 2.55105 | 36.99136 | 37888 ft | 495 kts | 17° |
| 2026-04-30 13:48 | 2.61705 | 37.01081 | 37885 ft | 495 kts | 17° |
| 2026-04-30 13:48 | 2.68306 | 37.03024 | 37886 ft | 496 kts | 16° |
| 2026-04-30 13:49 | 2.74919 | 37.04971 | 37883 ft | 499 kts | 17° |
| 2026-04-30 13:49 | 2.81611 | 37.06948 | 37891 ft | 494 kts | 17° |
| 2026-04-30 13:50 | 2.88184 | 37.08885 | 37875 ft | 495 kts | 17° |
| 2026-04-30 13:50 | 2.98117 | 37.11813 | 37872 ft | 495 kts | 17° |
| 2026-04-30 13:51 | 3.04662 | 37.13743 | 37871 ft | 495 kts | 17° |
| 2026-04-30 13:51 | 3.11312 | 37.15705 | 37870 ft | 495 kts | 17° |
| 2026-04-30 13:52 | 3.17913 | 37.17652 | 37808 ft | 495 kts | 17° |
| 2026-04-30 13:52 | 3.24492 | 37.19592 | 37798 ft | 495 kts | 17° |
| 2026-04-30 13:53 | 3.31110 | 37.21545 | 37799 ft | 494 kts | 17° |
| 2026-04-30 13:53 | 3.37730 | 37.23498 | 37800 ft | 494 kts | 17° |
| 2026-04-30 13:54 | 3.44277 | 37.25430 | 37800 ft | 494 kts | 17° |
| 2026-04-30 13:54 | 3.50965 | 37.27390 | 37757 ft | 501 kts | 17° |
| 2026-04-30 13:55 | 3.57606 | 37.29356 | 37849 ft | 488 kts | 17° |
| 2026-04-30 13:55 | 3.64157 | 37.31298 | 37815 ft | 494 kts | 17° |
| 2026-04-30 13:56 | 3.70732 | 37.33238 | 37816 ft | 495 kts | 17° |
| 2026-04-30 13:56 | 3.77300 | 37.35179 | 37814 ft | 494 kts | 17° |
| 2026-04-30 13:57 | 3.83899 | 37.37129 | 37817 ft | 494 kts | 17° |
| 2026-04-30 13:57 | 3.90489 | 37.39077 | 37820 ft | 494 kts | 17° |
| 2026-04-30 13:58 | 4.00377 | 37.41995 | 37825 ft | 494 kts | 17° |
| 2026-04-30 13:59 | 4.06958 | 37.43792 | 37829 ft | 494 kts | 15° |
| 2026-04-30 13:59 | 4.13609 | 37.45572 | 37832 ft | 494 kts | 16° |
| 2026-04-30 14:00 | 4.20235 | 37.47357 | 37835 ft | 493 kts | 16° |
| 2026-04-30 14:00 | 4.30145 | 37.50037 | 37841 ft | 494 kts | 16° |
| 2026-04-30 14:01 | 4.36816 | 37.51841 | 37846 ft | 494 kts | 16° |
| 2026-04-30 14:01 | 4.43419 | 37.53628 | 37850 ft | 494 kts | 16° |
| 2026-04-30 14:02 | 4.50049 | 37.55423 | 37855 ft | 494 kts | 16° |
| 2026-04-30 14:02 | 4.56686 | 37.57220 | 37860 ft | 494 kts | 16° |
| 2026-04-30 14:03 | 4.63323 | 37.59018 | 37865 ft | 494 kts | 16° |
| 2026-04-30 14:03 | 4.70015 | 37.60832 | 37870 ft | 494 kts | 16° |
| 2026-04-30 14:04 | 4.76609 | 37.62614 | 37865 ft | 494 kts | 16° |
| 2026-04-30 14:04 | 4.83279 | 37.64424 | 37880 ft | 494 kts | 15° |
| 2026-04-30 14:05 | 4.89911 | 37.66224 | 37887 ft | 495 kts | 15° |
| 2026-04-30 14:05 | 4.96513 | 37.68015 | 37894 ft | 495 kts | 15° |
| 2026-04-30 14:06 | 5.06541 | 37.70733 | 37904 ft | 495 kts | 15° |
| 2026-04-30 14:07 | 5.16500 | 37.73441 | 37931 ft | 498 kts | 15° |
| 2026-04-30 14:08 | 5.26477 | 37.76146 | 37924 ft | 495 kts | 15° |
| 2026-04-30 14:08 | 5.36469 | 37.78858 | 37935 ft | 495 kts | 15° |
| 2026-04-30 14:09 | 5.43075 | 37.80652 | 37943 ft | 495 kts | 15° |
| 2026-04-30 14:10 | 5.53033 | 37.83362 | 38016 ft | 490 kts | 15° |
| 2026-04-30 14:10 | 5.59579 | 37.85129 | 37945 ft | 488 kts | 15° |
| 2026-04-30 14:11 | 5.66119 | 37.86905 | 37950 ft | 484 kts | 15° |
| 2026-04-30 14:11 | 5.72637 | 37.88678 | 37949 ft | 494 kts | 15° |
| 2026-04-30 14:12 | 5.79306 | 37.90497 | 37988 ft | 498 kts | 15° |
| 2026-04-30 14:12 | 5.86027 | 37.92327 | 37997 ft | 496 kts | 15° |
| 2026-04-30 14:13 | 5.92634 | 37.94125 | 38007 ft | 496 kts | 15° |
| 2026-04-30 14:13 | 5.99303 | 37.95940 | 38016 ft | 496 kts | 15° |
| 2026-04-30 14:14 | 6.05930 | 37.97744 | 38025 ft | 496 kts | 15° |
| 2026-04-30 14:14 | 6.12095 | 37.99417 | 38041 ft | 496 kts | 15° |
| 2026-04-30 14:15 | 6.18732 | 38.01228 | 38038 ft | 494 kts | 16° |
| 2026-04-30 14:15 | 6.25313 | 38.03031 | 38036 ft | 493 kts | 15° |
| 2026-04-30 14:16 | 6.32003 | 38.04847 | 38074 ft | 500 kts | 15° |
| 2026-04-30 14:16 | 6.38657 | 38.06657 | 38070 ft | 491 kts | 15° |
| 2026-04-30 14:17 | 6.45243 | 38.08456 | 38068 ft | 494 kts | 15° |
| 2026-04-30 14:17 | 6.51998 | 38.10288 | 38098 ft | 508 kts | 15° |
| 2026-04-30 14:18 | 6.58820 | 38.12158 | 38093 ft | 511 kts | 15° |
| 2026-04-30 14:18 | 6.68969 | 38.14896 | 38124 ft | 496 kts | 15° |
| 2026-04-30 14:19 | 6.75531 | 38.16681 | 38123 ft | 479 kts | 15° |
| 2026-04-30 14:19 | 6.78753 | 38.17554 | 38109 ft | 485 kts | 15° |
| 2026-04-30 14:20 | 6.85357 | 38.19344 | 38060 ft | 502 kts | 15° |
| 2026-04-30 14:20 | 6.88745 | 38.20261 | 37843 ft | 504 kts | 15° |
| 2026-04-30 14:20 | 6.95386 | 38.22065 | 37215 ft | 486 kts | 15° |
| 2026-04-30 14:21 | 6.98659 | 38.22956 | 36495 ft | 487 kts | 15° |
| 2026-04-30 14:21 | 7.01934 | 38.23846 | 35671 ft | 490 kts | 15° |
| 2026-04-30 14:21 | 7.08500 | 38.25630 | 34025 ft | 495 kts | 15° |
| 2026-04-30 14:22 | 7.11833 | 38.26536 | 33193 ft | 497 kts | 15° |
| 2026-04-30 14:22 | 7.18556 | 38.28366 | 31046 ft | 509 kts | 15° |
| 2026-04-30 14:22 | 7.22018 | 38.29302 | 30088 ft | 511 kts | 15° |
| 2026-04-30 14:23 | 7.28772 | 38.31140 | 29033 ft | 496 kts | 15° |
| 2026-04-30 14:23 | 7.35318 | 38.32921 | 28180 ft | 479 kts | 15° |
| 2026-04-30 14:24 | 7.41647 | 38.34643 | 27097 ft | 467 kts | 15° |
| 2026-04-30 14:24 | 7.44801 | 38.35501 | 26454 ft | 464 kts | 15° |
| 2026-04-30 14:25 | 7.50976 | 38.37199 | 25203 ft | 458 kts | 17° |
| 2026-04-30 14:25 | 7.57044 | 38.38971 | 24003 ft | 451 kts | 16° |
| 2026-04-30 14:26 | 7.63124 | 38.40731 | 22576 ft | 452 kts | 17° |
| 2026-04-30 14:26 | 7.66086 | 38.41598 | 22080 ft | 447 kts | 17° |
| 2026-04-30 14:26 | 7.71930 | 38.43296 | 21343 ft | 429 kts | 17° |
| 2026-04-30 14:27 | 7.74767 | 38.44118 | 20813 ft | 424 kts | 17° |
| 2026-04-30 14:27 | 7.77599 | 38.44937 | 20279 ft | 422 kts | 17° |
| 2026-04-30 14:27 | 7.80412 | 38.45753 | 19789 ft | 418 kts | 17° |
| 2026-04-30 14:28 | 7.85956 | 38.47360 | 18545 ft | 418 kts | 17° |
| 2026-04-30 14:28 | 7.88795 | 38.48183 | 17514 ft | 426 kts | 17° |
| 2026-04-30 14:28 | 7.91647 | 38.49019 | 16894 ft | 426 kts | 17° |
| 2026-04-30 14:28 | 7.94452 | 38.49811 | 16745 ft | 411 kts | 17° |
| 2026-04-30 14:29 | 7.99815 | 38.51271 | 16418 ft | 394 kts | 11° |
| 2026-04-30 14:29 | 8.04269 | 38.51861 | 16375 ft | 386 kts | 7° |
| 2026-04-30 14:30 | 8.13566 | 38.52486 | 15156 ft | 412 kts | 3° |
| 2026-04-30 14:31 | 8.18347 | 38.52710 | 14511 ft | 403 kts | 4° |
| 2026-04-30 14:31 | 8.23816 | 38.52984 | 14470 ft | 387 kts | 4° |
| 2026-04-30 14:31 | 8.26511 | 38.53093 | 14346 ft | 391 kts | 3° |
| 2026-04-30 14:32 | 8.31932 | 38.53381 | 14324 ft | 385 kts | 4° |
| 2026-04-30 14:32 | 8.35506 | 38.53559 | 14173 ft | 389 kts | 4° |
| 2026-04-30 14:32 | 8.37322 | 38.53655 | 14309 ft | 386 kts | 3° |
| 2026-04-30 14:33 | 8.40889 | 38.53837 | 14304 ft | 392 kts | 3° |
| 2026-04-30 14:33 | 8.45464 | 38.54062 | 14273 ft | 390 kts | 3° |
| 2026-04-30 14:33 | 8.48138 | 38.54197 | 14340 ft | 388 kts | 3° |
| 2026-04-30 14:34 | 8.50855 | 38.54336 | 14297 ft | 384 kts | 3° |
| 2026-04-30 14:34 | 8.53539 | 38.54478 | 14232 ft | 390 kts | 4° |
| 2026-04-30 14:34 | 8.56191 | 38.54603 | 14263 ft | 379 kts | 3° |
| 2026-04-30 14:34 | 8.58787 | 38.54731 | 14290 ft | 370 kts | 4° |
| 2026-04-30 14:35 | 8.63935 | 38.54989 | 14261 ft | 378 kts | 4° |
| 2026-04-30 14:35 | 8.66615 | 38.55116 | 14295 ft | 393 kts | 4° |
| 2026-04-30 14:35 | 8.69336 | 38.55259 | 14300 ft | 393 kts | 3° |
| 2026-04-30 14:36 | 8.72061 | 38.55386 | 14295 ft | 377 kts | 3° |
| 2026-04-30 14:36 | 8.74558 | 38.55500 | 14072 ft | 353 kts | 3° |
| 2026-04-30 14:36 | 8.76979 | 38.55609 | 13627 ft | 336 kts | 3° |
| 2026-04-30 14:36 | 8.79236 | 38.55709 | 13184 ft | 323 kts | 3° |
| 2026-04-30 14:37 | 8.81424 | 38.55962 | 12704 ft | 311 kts | 15° |
| 2026-04-30 14:37 | 8.83308 | 38.56938 | 12267 ft | 300 kts | 36° |
| 2026-04-30 14:37 | 8.84794 | 38.58356 | 11829 ft | 297 kts | 49° |
| 2026-04-30 14:37 | 8.85951 | 38.60080 | 11385 ft | 292 kts | 58° |
| 2026-04-30 14:38 | 8.87091 | 38.61710 | 10951 ft | 281 kts | 51° |
| 2026-04-30 14:38 | 8.88437 | 38.63132 | 10501 ft | 273 kts | 43° |
| 2026-04-30 14:38 | 8.89786 | 38.64347 | 10382 ft | 253 kts | 41° |
| 2026-04-30 14:38 | 8.91057 | 38.65468 | 10310 ft | 232 kts | 41° |
| 2026-04-30 14:39 | 8.92213 | 38.66488 | 10301 ft | 209 kts | 42° |
| 2026-04-30 14:39 | 8.93128 | 38.67540 | 10290 ft | 198 kts | 52° |
| 2026-04-30 14:39 | 8.93846 | 38.68759 | 10340 ft | 200 kts | 59° |
| 2026-04-30 14:40 | 8.95091 | 38.71277 | 9715 ft | 202 kts | 67° |
| 2026-04-30 14:40 | 8.95563 | 38.72691 | 8807 ft | 222 kts | 75° |
| 2026-04-30 14:40 | 8.95905 | 38.74200 | 8231 ft | 218 kts | 74° |
| 2026-04-30 14:40 | 8.96350 | 38.75582 | 8008 ft | 194 kts | 71° |
| 2026-04-30 14:41 | 8.96748 | 38.76769 | 7750 ft | 170 kts | 72° |
| 2026-04-30 14:41 | 8.97096 | 38.77854 | 7474 ft | 147 kts | 73° |
| 2026-04-30 14:41 | 8.97345 | 38.78744 | 7338 ft | 118 kts | 74° |
| 2026-04-30 14:41 | 8.97527 | 38.79340 | 7333 ft | 51 kts | 77° |
| 2026-04-30 14:42 | 8.97603 | 38.79635 | 7333 ft | 44 kts | 76° |
| 2026-04-30 14:42 | 8.97689 | 38.79923 | 7333 ft | 42 kts | 72° |
| 2026-04-30 14:42 | 8.97767 | 38.80176 | 7333 ft | 34 kts | 72° |
| 2026-04-30 14:42 | 8.97829 | 38.80375 | 7333 ft | 23 kts | 73° |
| 2026-04-30 14:43 | 8.97863 | 38.80494 | 7333 ft | 13 kts | 75° |
| 2026-04-30 14:43 | 8.97895 | 38.80565 | 7333 ft | 12 kts | 46° |
| 2026-04-30 14:43 | 8.97961 | 38.80611 | 7333 ft | 10 kts | 31° |
| 2026-04-30 14:43 | 8.98007 | 38.80639 | 7333 ft | 5 kts | 29° |
| 2026-04-30 14:44 | 8.98024 | 38.80648 | 7333 ft | 1 kts | 30° |
| 2026-04-30 14:44 | 8.98042 | 38.80659 | 7333 ft | 9 kts | 29° |
| 2026-04-30 14:44 | 8.98090 | 38.80653 | 7333 ft | 4 kts | 294° |
| 2026-04-30 14:44 | 8.98086 | 38.80617 | 7333 ft | 11 kts | 255° |
| 2026-04-30 14:45 | 8.98059 | 38.80513 | 7333 ft | 16 kts | 255° |
| 2026-04-30 14:45 | 8.98030 | 38.80416 | 7333 ft | 12 kts | 250° |
| 2026-04-30 14:45 | 8.98006 | 38.80348 | 7333 ft | 8 kts | 251° |
| 2026-04-30 14:45 | 8.97994 | 38.80299 | 7333 ft | 7 kts | 259° |
| 2026-04-30 14:46 | 8.97986 | 38.80259 | 7333 ft | 4 kts | 258° |
| 2026-04-30 14:46 | 8.97977 | 38.80219 | 7333 ft | 9 kts | 253° |
| 2026-04-30 14:46 | 8.97951 | 38.80133 | 7333 ft | 13 kts | 254° |
| 2026-04-30 14:46 | 8.97930 | 38.80057 | 7333 ft | 9 kts | 255° |
| 2026-04-30 14:47 | 8.97917 | 38.80006 | 7333 ft | 5 kts | 255° |
| 2026-04-30 14:47 | 8.97910 | 38.79986 | 7333 ft | 1 kts | 251° |
| 2026-04-30 14:47 | 8.97910 | 38.79985 | 7333 ft | 0 kts | 251° |
| 2026-04-30 14:47 | 8.97901 | 38.79958 | 7333 ft | 10 kts | 251° |
| 2026-04-30 14:48 | 8.97899 | 38.79953 | 7333 ft | 11 kts | 251° |
| 2026-04-30 14:48 | 8.97897 | 38.79946 | 7333 ft | 11 kts | 252° |
| 2026-04-30 14:49 | 8.97877 | 38.79881 | 7333 ft | 8 kts | 253° |
| 2026-04-30 14:49 | 8.97873 | 38.79867 | 7333 ft | 7 kts | 253° |
| 2026-04-30 14:50 | 8.97853 | 38.79795 | 7333 ft | 10 kts | 254° |
| 2026-04-30 14:50 | 8.97850 | 38.79777 | 7333 ft | 1 kts | 278° |
| 2026-04-30 14:51 | 8.97946 | 38.79739 | 7333 ft | 10 kts | 347° |
| 2026-04-30 14:51 | 8.98028 | 38.79718 | 7333 ft | 17 kts | 345° |
| 2026-04-30 14:51 | 8.98130 | 38.79676 | 7333 ft | 10 kts | 287° |
| 2026-04-30 14:52 | 8.98108 | 38.79594 | 7333 ft | 12 kts | 253° |
| 2026-04-30 14:52 | 8.98070 | 38.79502 | 7333 ft | 2 kts | 189° |
| 2026-04-30 14:52 | 8.98056 | 38.79505 | 7333 ft | 6 kts | 166° |
| 2026-04-30 14:53 | 8.98039 | 38.79509 | 7333 ft | 0 kts | 162° |
| 2026-04-30 14:54 | 8.98039 | 38.79510 | 7333 ft | 0 kts | 162° |
| 2026-04-30 14:57 | 8.98038 | 38.79510 | 7333 ft | 0 kts | 162° |